Terminal Aerodrome Forecast
Issued by NWS

Home | Current Version | Previous Version | Text Only | Print | Product List | Glossary On
Versions: 1 2 3 4 5 6 7 8 9 10 11 12 13 14 15 16 17 18 19 20 21 22 23 24 25 26
000
FTUS41 KILN 300538
TAFLUK
TAF
KLUK 300538Z 3006/3106 23004KT P6SM BKN250
     FM300800 VRB03KT 3SM BR SCT250
     FM301000 VRB02KT 1SM BR FEW250
     FM301200 30005KT 4SM BR FEW250
     FM301300 30006KT P6SM FEW250
     FM301600 31009G16KT P6SM SCT040
     FM302300 VRB04KT P6SM SKC=

USA.gov is the U.S. government's official web portal to all federal, state and local government web resources and services.